createdAt,value
2019-04-06T00:01:12.307Z,29.33
2019-04-06T00:03:44.662Z,27.47
2019-04-06T00:06:17.997Z,27.77
2019-04-06T00:08:52.926Z,27.53
2019-04-06T00:11:25.258Z,24.87
2019-04-06T00:13:56.132Z,26.13
2019-04-06T00:16:25.538Z,24.87
2019-04-06T00:18:55.506Z,25.17
2019-04-06T00:21:26.193Z,24.93
2019-04-06T00:23:55.570Z,24.87
2019-04-06T00:26:29.295Z,24.83
2019-04-06T00:29:03.405Z,24.90
2019-04-06T00:31:54.458Z,23.83
2019-04-06T00:34:33.346Z,23.70
2019-04-06T00:37:07.450Z,23.60
2019-04-06T00:39:39.678Z,23.10
2019-04-06T00:42:12.739Z,23.67
2019-04-06T00:44:59.414Z,22.27
2019-04-06T00:47:32.308Z,21.40
2019-04-06T00:50:03.412Z,21.40
2019-04-06T00:52:34.421Z,21.90
2019-04-06T00:55:03.842Z,20.53
2019-04-06T00:57:34.898Z,20.10
2019-04-06T01:00:05.604Z,20.57
2019-04-06T01:02:35.483Z,20.97
2019-04-06T01:05:27.411Z,20.53
2019-04-06T01:07:58.084Z,20.17
2019-04-06T01:10:30.455Z,19.37
2019-04-06T01:13:08.027Z,19.83
2019-04-06T01:15:45.779Z,19.37
2019-04-06T01:18:17.551Z,19.13
2019-04-06T01:20:53.335Z,18.73
2019-04-06T01:24:12.635Z,19.10
2019-04-06T01:26:18.653Z,17.57
2019-04-06T01:28:58.701Z,18.27
2019-04-06T01:31:31.620Z,18.10
2019-04-06T01:36:41.387Z,17.97
2019-04-06T01:39:33.399Z,16.57
2019-04-06T01:44:38.723Z,17.17
2019-04-06T01:47:17.402Z,17.63
2019-04-06T01:50:26.184Z,17.43
2019-04-06T01:52:43.380Z,16.83
2019-04-06T01:55:12.408Z,15.80
2019-04-06T02:00:46.102Z,15.50
2019-04-06T02:03:16.799Z,16.90
2019-04-06T02:05:54.953Z,15.40
2019-04-06T02:08:26.900Z,15.80
2019-04-06T02:10:57.641Z,15.73
2019-04-06T02:13:28.216Z,15.33
2019-04-06T03:35:21.669Z,11.00
2019-04-06T03:37:51.897Z,11.50
2019-04-06T03:42:48.860Z,11.73
2019-04-06T03:45:18.157Z,11.93
2019-04-06T03:48:02.769Z,10.93
2019-04-06T03:50:33.662Z,10.60
2019-04-06T03:53:02.725Z,9.90
2019-04-06T03:55:33.363Z,11.07
2019-04-06T03:58:05.302Z,9.93
2019-04-06T04:00:54.537Z,10.67
2019-04-06T04:03:55.588Z,10.10
2019-04-06T04:05:58.561Z,10.47
2019-04-06T04:08:29.375Z,10.57
2019-04-06T04:10:58.560Z,10.23
2019-04-06T04:13:27.857Z,10.07
2019-04-06T04:16:00.451Z,10.60
2019-04-06T04:18:36.353Z,9.80
2019-04-06T04:21:05.343Z,10.53
2019-04-06T04:23:34.738Z,10.07
2019-04-06T04:26:04.013Z,10.47
2019-04-06T04:31:24.359Z,10.67
2019-04-06T04:33:59.719Z,11.17
2019-04-06T04:36:30.489Z,11.17
2019-04-06T04:39:00.580Z,12.37
2019-04-06T04:41:29.669Z,11.13
2019-04-06T04:43:58.726Z,12.60
2019-04-06T04:46:28.050Z,10.00
2019-04-06T04:49:08.891Z,10.77
2019-04-06T04:51:45.574Z,10.83
2019-04-06T05:02:19.977Z,11.20
2019-04-06T05:05:09.715Z,10.30
2019-04-06T05:07:40.561Z,11.50
2019-04-06T05:10:12.254Z,9.50
2019-04-06T05:12:46.630Z,9.37
2019-04-06T05:15:29.291Z,10.73
2019-04-06T05:17:58.975Z,10.33
2019-04-06T05:20:28.057Z,11.43
2019-04-06T05:22:57.371Z,10.40
2019-04-06T05:28:24.193Z,11.17
2019-04-06T05:30:53.476Z,10.57
2019-04-06T05:33:24.005Z,10.77
2019-04-06T05:35:58.016Z,10.50
2019-04-06T05:38:27.468Z,11.47
2019-04-06T05:40:58.292Z,12.20
2019-04-06T05:43:44.533Z,9.07
2019-04-06T05:46:20.277Z,10.30
2019-04-06T05:48:53.670Z,12.10
2019-04-06T05:54:15.670Z,10.80
2019-04-06T05:57:20.273Z,11.17
2019-04-06T05:59:50.410Z,10.77
2019-04-06T06:02:28.173Z,11.93
2019-04-06T06:05:00.862Z,11.63
2019-04-06T06:07:30.200Z,11.63
2019-04-06T06:09:59.555Z,28.90
2019-04-06T06:12:29.213Z,15.47
2019-04-06T06:14:59.431Z,14.00
2019-04-06T06:17:48.187Z,19.27
2019-04-06T06:20:21.813Z,14.37
2019-04-06T06:22:50.802Z,11.40
2019-04-06T06:25:26.547Z,11.90
2019-04-06T06:28:14.635Z,13.53
2019-04-06T06:33:28.795Z,13.40
2019-04-06T06:36:03.039Z,12.33
2019-04-06T06:38:33.751Z,16.27
2019-04-06T06:41:03.213Z,14.53
2019-04-06T06:43:36.778Z,14.37
2019-04-06T06:46:08.867Z,16.03
2019-04-06T06:48:42.949Z,17.93
2019-04-06T06:51:58.159Z,15.43
2019-04-06T06:54:31.483Z,16.13
2019-04-06T06:57:01.066Z,17.60
2019-04-06T06:59:30.046Z,20.37
2019-04-06T07:01:59.246Z,20.57
2019-04-06T07:04:30.187Z,20.50
2019-04-06T07:06:59.524Z,24.67
2019-04-06T07:09:32.706Z,22.37
2019-04-06T07:12:04.412Z,24.07
2019-04-06T07:14:48.048Z,25.67
2019-04-06T07:17:24.112Z,23.23
2019-04-06T07:20:00.623Z,24.80
2019-04-06T07:25:17.636Z,29.07
2019-04-06T07:27:55.528Z,28.83
2019-04-06T07:30:24.683Z,27.07
2019-04-06T07:33:18.462Z,25.13
2019-04-06T07:35:51.366Z,29.07
2019-04-06T07:38:20.390Z,27.00
2019-04-06T07:41:00.159Z,32.20
2019-04-06T07:43:33.721Z,30.07
2019-04-06T07:46:11.908Z,32.10
2019-04-06T07:48:50.440Z,34.27
2019-04-06T07:51:21.525Z,28.10
2019-04-06T07:53:56.643Z,33.67
2019-04-06T07:56:30.091Z,29.97
2019-04-06T07:59:01.494Z,30.50
2019-04-06T08:04:17.620Z,30.40
2019-04-06T08:06:50.530Z,31.83
2019-04-06T08:09:24.459Z,35.47
2019-04-06T08:20:17.092Z,29.33
2019-04-06T08:22:51.418Z,36.93
2019-04-06T08:25:21.311Z,27.67
2019-04-06T08:27:51.235Z,26.00
2019-04-06T08:30:22.204Z,28.03
2019-04-06T08:32:54.876Z,29.27
2019-04-06T08:38:01.098Z,25.70
2019-04-06T08:45:45.197Z,27.53
2019-04-06T08:48:23.814Z,25.47
2019-04-06T08:51:01.158Z,27.30
2019-04-06T08:53:36.511Z,28.87
2019-04-06T08:56:04.565Z,27.53
2019-04-06T08:58:36.292Z,26.53
2019-04-06T09:01:15.549Z,29.33
2019-04-06T09:03:48.613Z,27.20
2019-04-06T09:06:46.809Z,29.83
2019-04-06T09:14:50.273Z,30.13
2019-04-06T09:17:29.249Z,24.77
2019-04-06T09:31:08.846Z,32.33
2019-04-06T09:33:38.999Z,27.43
2019-04-06T09:36:11.968Z,28.43
2019-04-06T09:38:47.868Z,29.67
2019-04-06T09:41:21.273Z,33.63
2019-04-06T09:43:51.382Z,25.87
2019-04-06T09:46:41.619Z,29.83
2019-04-06T09:49:32.514Z,37.30
2019-04-06T09:52:23.779Z,27.83
2019-04-06T09:55:09.467Z,29.30
2019-04-06T09:57:58.605Z,30.57
2019-04-06T10:00:49.063Z,30.03
2019-04-06T10:03:50.504Z,32.10
2019-04-06T10:06:39.755Z,31.87
2019-04-06T10:09:42.774Z,36.27
2019-04-06T10:12:23.578Z,34.00
2019-04-06T10:15:17.163Z,33.17
2019-04-06T10:18:06.094Z,32.87
2019-04-06T10:20:58.536Z,37.93
2019-04-06T10:23:40.756Z,34.60
2019-04-06T10:26:48.451Z,32.87
2019-04-06T10:29:47.395Z,38.63
2019-04-06T10:32:46.840Z,37.87
2019-04-06T10:35:35.411Z,35.10
2019-04-06T10:38:23.909Z,37.10
2019-04-06T10:41:09.971Z,38.47
2019-04-06T10:43:58.071Z,37.17
2019-04-06T10:46:34.016Z,40.70
2019-04-06T10:49:22.080Z,43.03
2019-04-06T10:55:29.605Z,38.10
2019-04-06T10:58:24.917Z,38.57
2019-04-06T11:01:18.208Z,44.93
2019-04-06T11:04:04.912Z,43.40
2019-04-06T11:06:41.252Z,43.03
2019-04-06T11:09:28.890Z,44.27
2019-04-06T11:12:26.164Z,40.70
2019-04-06T11:18:16.973Z,43.53
2019-04-06T11:21:09.185Z,40.53
2019-04-06T11:23:57.494Z,40.67
2019-04-06T11:26:40.332Z,42.00
2019-04-06T11:29:33.314Z,45.33
2019-04-06T11:52:23.457Z,44.47
2019-04-06T11:58:04.865Z,46.07
2019-04-06T12:00:49.428Z,47.80
2019-04-06T12:03:38.285Z,44.57
2019-04-06T12:06:17.006Z,46.37
2019-04-06T12:09:07.292Z,45.80
2019-04-06T12:11:56.186Z,45.97
2019-04-06T12:17:36.208Z,47.10
2019-04-06T12:20:23.965Z,52.07
2019-04-06T12:23:12.504Z,49.43
2019-04-06T12:25:52.520Z,48.67
2019-04-06T12:28:40.832Z,48.63
2019-04-06T12:31:30.425Z,46.17
2019-04-06T12:34:20.627Z,48.43
2019-04-06T12:37:08.575Z,48.20
2019-04-06T12:39:54.790Z,47.40
2019-04-06T12:42:54.041Z,48.07
2019-04-06T12:45:49.321Z,47.83
2019-04-06T12:51:39.103Z,45.63
2019-04-06T12:54:31.790Z,48.53
2019-04-06T12:57:04.579Z,44.77
2019-04-06T12:59:50.530Z,44.40
2019-04-06T13:02:30.256Z,48.40
2019-04-06T13:05:18.338Z,47.47
2019-04-06T13:08:08.885Z,48.03
2019-04-06T13:10:47.390Z,49.10
2019-04-06T13:13:38.412Z,46.97
2019-04-06T13:16:45.783Z,46.33
2019-04-06T13:19:37.083Z,48.50
2019-04-06T13:22:32.772Z,48.07
2019-04-06T13:25:25.476Z,48.43
2019-04-06T13:28:20.948Z,49.17
2019-04-06T13:31:20.397Z,50.50
2019-04-06T13:34:00.321Z,51.27
2019-04-06T13:36:52.516Z,46.70
2019-04-06T13:39:44.396Z,52.63
2019-04-06T13:42:33.653Z,50.23
2019-04-06T13:45:22.781Z,48.73
2019-04-06T13:48:17.821Z,49.27
2019-04-06T13:51:04.834Z,50.50
2019-04-06T13:54:01.237Z,52.63
2019-04-06T13:56:58.325Z,48.87
2019-04-06T14:00:05.893Z,51.77
2019-04-06T14:02:54.135Z,51.57
2019-04-06T14:06:07.543Z,47.77
2019-04-06T14:08:44.574Z,48.93
2019-04-06T14:11:58.511Z,52.70
2019-04-06T14:14:18.175Z,49.30
2019-04-06T14:16:58.723Z,49.93
2019-04-06T14:19:49.591Z,50.13
2019-04-06T14:22:21.816Z,49.10
2019-04-06T14:25:16.188Z,50.53
2019-04-06T14:28:27.716Z,49.00
2019-04-06T14:31:27.458Z,47.60
2019-04-06T14:33:59.537Z,47.47
2019-04-06T14:36:49.999Z,46.93
2019-04-06T14:39:32.941Z,49.17
2019-04-06T14:42:38.557Z,49.07
2019-04-06T14:45:37.824Z,50.40
2019-04-06T14:48:35.689Z,48.47
2019-04-06T14:51:23.098Z,47.23
2019-04-06T14:54:11.469Z,48.97
2019-04-06T14:57:07.487Z,48.77
2019-04-06T14:59:55.873Z,50.67
2019-04-06T15:02:47.575Z,48.73
2019-04-06T15:05:26.513Z,51.83
2019-04-06T15:08:13.714Z,52.43
2019-04-06T15:10:57.251Z,51.33
2019-04-06T15:13:50.810Z,53.33
2019-04-06T15:16:32.358Z,52.27
2019-04-06T15:19:14.240Z,57.30
2019-04-06T15:22:00.662Z,56.70
2019-04-06T15:25:00.575Z,57.83
2019-04-06T15:27:52.545Z,61.60
2019-04-06T15:30:27.967Z,60.30
2019-04-06T15:33:17.514Z,66.33
2019-04-06T15:36:05.402Z,65.67
2019-04-06T15:38:48.631Z,67.07
2019-04-06T15:41:33.591Z,68.67
2019-04-06T15:44:16.953Z,67.03
2019-04-06T15:47:02.082Z,70.77
2019-04-06T15:49:50.295Z,74.37
2019-04-06T15:52:42.158Z,73.20
2019-04-06T15:55:24.923Z,73.67
2019-04-06T15:58:21.000Z,74.93
2019-04-06T16:01:12.816Z,75.97
2019-04-06T16:04:16.703Z,77.20
2019-04-06T16:07:03.246Z,82.20
2019-04-06T16:10:10.130Z,77.07
2019-04-06T16:13:03.123Z,77.60
2019-04-06T16:15:58.217Z,75.10
2019-04-06T16:18:50.805Z,75.33
2019-04-06T16:21:41.137Z,74.13
2019-04-06T16:24:28.551Z,78.43
2019-04-06T16:27:32.259Z,73.53
2019-04-06T16:30:29.051Z,74.37
2019-04-06T16:33:08.966Z,79.53
2019-04-06T16:36:09.973Z,76.47
2019-04-06T16:39:16.247Z,77.33
2019-04-06T16:42:18.979Z,75.43
2019-04-06T16:45:18.034Z,74.83
2019-04-06T16:48:08.715Z,73.07
2019-04-06T16:51:08.421Z,70.93
2019-04-06T16:54:02.503Z,72.77
2019-04-06T16:56:54.268Z,70.60
2019-04-06T17:17:45.689Z,71.50
2019-04-06T17:23:54.818Z,70.33
2019-04-06T17:30:02.069Z,70.17
2019-04-06T17:32:59.347Z,70.00
2019-04-06T17:39:15.809Z,70.37
2019-04-06T17:42:17.837Z,70.10
2019-04-06T17:44:56.546Z,71.57
2019-04-06T17:47:48.063Z,68.67
2019-04-06T17:53:36.682Z,69.47
2019-04-06T17:56:29.862Z,70.53
2019-04-06T17:59:23.502Z,65.40
2019-04-06T18:02:18.798Z,75.07
2019-04-06T18:05:11.129Z,69.00
2019-04-06T18:07:54.595Z,69.17
2019-04-06T18:10:55.697Z,68.47
2019-04-06T18:13:51.048Z,65.57
2019-04-06T18:16:23.519Z,65.00
2019-04-06T18:18:56.862Z,64.00
2019-04-06T18:21:27.175Z,60.50
2019-04-06T18:24:01.054Z,61.27
2019-04-06T18:26:52.982Z,58.43
2019-04-06T18:29:22.440Z,62.13
2019-04-06T18:32:12.690Z,61.30
2019-04-06T18:37:53.772Z,58.83
2019-04-06T18:40:29.744Z,56.63
2019-04-06T18:43:04.154Z,56.77
2019-04-06T18:45:39.974Z,55.50
2019-04-06T18:48:14.510Z,56.13
2019-04-06T18:53:31.609Z,57.30
2019-04-06T18:56:01.109Z,56.37
2019-04-06T18:58:30.207Z,59.17
2019-04-06T19:01:00.716Z,55.23
2019-04-06T19:03:33.330Z,56.37
2019-04-06T19:06:02.523Z,56.10
2019-04-06T19:08:53.776Z,52.83
2019-04-06T19:11:32.845Z,51.97
2019-04-06T19:17:21.340Z,50.40
2019-04-06T19:19:55.936Z,49.80
2019-04-06T19:25:12.677Z,49.60
2019-04-06T19:33:36.439Z,49.37
2019-04-06T19:38:56.720Z,50.53
2019-04-06T19:41:54.329Z,46.30
2019-04-06T19:44:24.218Z,46.83
2019-04-06T19:47:04.646Z,48.53
2019-04-06T19:49:48.188Z,49.27
2019-04-06T19:52:23.250Z,47.10
2019-04-06T19:57:38.305Z,50.63
2019-04-06T20:02:57.844Z,50.77
2019-04-06T20:05:27.471Z,51.43
2019-04-06T20:07:58.520Z,50.80
2019-04-06T20:10:27.571Z,50.17
2019-04-06T20:12:57.251Z,50.67
2019-04-06T20:40:58.220Z,49.03
2019-04-06T20:43:27.881Z,50.80
2019-04-06T20:45:57.691Z,50.00
2019-04-06T20:48:27.236Z,51.13
2019-04-06T20:50:56.572Z,49.37
2019-04-06T20:53:25.904Z,51.83
2019-04-06T20:56:01.796Z,49.53
2019-04-06T21:01:27.700Z,50.23
2019-04-06T21:04:00.810Z,51.60
2019-04-06T21:06:31.406Z,49.07
2019-04-06T21:11:51.533Z,52.73
2019-04-06T21:14:20.668Z,50.03
2019-04-06T21:16:55.668Z,50.23
2019-04-06T21:19:24.851Z,49.43
2019-04-06T21:21:58.661Z,52.17
2019-04-06T21:24:27.370Z,50.47
2019-04-06T21:27:15.088Z,51.97
2019-04-06T21:32:44.680Z,51.37
2019-04-06T21:35:19.514Z,52.17
2019-04-06T21:37:49.561Z,49.10
2019-04-06T21:40:20.439Z,50.70
2019-04-06T21:42:51.149Z,53.57
2019-04-06T21:45:20.700Z,50.83
2019-04-06T21:53:43.561Z,51.03
2019-04-06T21:56:12.583Z,48.60
2019-04-06T21:58:42.480Z,53.10
2019-04-06T22:01:12.079Z,50.83
2019-04-06T22:03:41.023Z,55.17
2019-04-06T22:06:11.467Z,54.37
2019-04-06T22:08:42.746Z,52.50
2019-04-06T22:11:12.522Z,55.10
2019-04-06T22:13:41.888Z,62.40
2019-04-06T22:16:12.977Z,53.47
2019-04-06T22:18:45.236Z,57.87
2019-04-06T22:21:20.600Z,55.30
2019-04-06T22:23:53.379Z,52.73
2019-04-06T22:26:25.994Z,60.20
2019-04-06T22:31:58.464Z,56.83
2019-04-06T22:34:38.588Z,54.50
2019-04-06T22:37:03.829Z,60.90
2019-04-06T22:39:35.279Z,57.53
2019-04-06T22:42:27.360Z,61.60
2019-04-06T22:45:14.938Z,58.93
2019-04-06T22:48:00.309Z,59.37
2019-04-06T22:50:37.226Z,59.23
2019-04-06T22:53:06.817Z,62.10
2019-04-06T22:55:42.337Z,60.80
2019-04-06T22:58:54.313Z,58.87
2019-04-06T23:01:56.062Z,61.77
2019-04-06T23:04:46.627Z,58.40
2019-04-06T23:07:12.221Z,63.27
2019-04-06T23:09:43.059Z,67.00
2019-04-06T23:12:16.941Z,63.40
2019-04-06T23:14:46.693Z,65.53
2019-04-06T23:17:21.373Z,65.60
2019-04-06T23:19:57.089Z,62.17
2019-04-06T23:22:31.716Z,64.90
2019-04-06T23:25:08.372Z,68.00
2019-04-06T23:27:40.525Z,61.23
2019-04-06T23:30:18.695Z,61.63
2019-04-06T23:32:50.679Z,65.80
2019-04-06T23:35:20.722Z,67.40
2019-04-06T23:38:06.362Z,66.93
2019-04-06T23:40:39.966Z,69.00
2019-04-06T23:43:13.474Z,66.13
2019-04-06T23:45:50.575Z,68.37
2019-04-06T23:48:24.141Z,67.77
2019-04-06T23:50:57.336Z,67.93
2019-04-06T23:53:27.955Z,69.43
2019-04-06T23:56:11.081Z,65.53
2019-04-06T23:58:44.370Z,69.93
